Seabourn Sojourn — C6YA5 — position and weather

sailwx.info

Track history (hours):
 
Tides and Currents Weather Stations Pressure Air Temp Water Temp Dewpoint Dewpoint Depression Visibility Wind Speed Wind Dir Waves Ship Positions

Seabourn Sojourn

Last reported at 2017-May-29 16:54 UTC. Time now 2017-May-29 17:01 UTC.
Position N 50°35' W 126°57'.

Length 197 m; draft 6.8 m.

Type: Passenger vessel. MMSI: 311027100.

Date/timePositionNaut miles runAvg speedWind from/ knotsBaromVisibWave heightAir tempDewpointWater temp
2017-May-29 16:54N 50°35' W 126°57'610.4
2017-May-29 16:19N 50°37' W 127°06'413.4
2017-May-29 15:59N 50°39' W 127°12'815.8
2017-May-29 15:29N 50°45' W 127°21'714.9
2017-May-29 15:00N 50°50' W 127°28'714.0
2017-May-29 14:30N 50°54' W 127°37'2312.2
2017-May-29 12:39N 51°08' W 128°06'212.1
2017-May-29 12:30N 51°09' W 128°08'714.3
2017-May-29 12:00N 51°13' W 128°17'714.3
2017-May-29 11:30N 51°18' W 128°26'714.4
2017-May-29 11:00N 51°22' W 128°35'714.3
2017-May-29 10:30N 51°27' W 128°44'714.3
2017-May-29 10:00N 51°32' W 128°52'714.6
2017-May-29 09:30N 51°38' W 128°58'714.5
2017-May-29 09:01N 51°44' W 129°04'714.6
2017-May-29 08:30N 51°51' W 129°10'814.5
2017-May-29 07:59N 51°57' W 129°16'714.7
2017-May-29 07:30N 52°03' W 129°23'432 9.3
2017-May-27 09:00N 58°30' W 135°00'28 0.6 150 / 91021.0
2017-May-25 12:23N 58°18' W 135°48'616.0
2017-May-25 12:00N 58°20' W 135°60'38914.9
2017-May-24 10:00N 57°48' W 148°12'440 9.0 200 / 281019.0
2017-May-22 09:00N 53°42' W 159°00'32414.1 220 / 151004.0
2017-May-21 10:00N 52°00' W 167°30'   190 / 71012.0
Track history (hours):
 
Tides and Currents Weather Stations Pressure Air Temp Water Temp Dewpoint Dewpoint Depression Visibility Wind Speed Wind Dir Waves Ship Positions

Seabourn Sojourn

Last reported at 2017-May-29 16:54 UTC. Time now 2017-May-29 17:01 UTC.
Position N 50°35' W 126°57'.

Length 197 m; draft 6.8 m.

Type: Passenger vessel. MMSI: 311027100.

Date/timePositionNaut miles runAvg speedWind from/ knotsBaromVisibWave heightAir tempDewpointWater temp
2017-May-29 16:54N 50°35' W 126°57'610.4
2017-May-29 16:19N 50°37' W 127°06'413.4
2017-May-29 15:59N 50°39' W 127°12'815.8
2017-May-29 15:29N 50°45' W 127°21'714.9
2017-May-29 15:00N 50°50' W 127°28'714.0
2017-May-29 14:30N 50°54' W 127°37'2312.2
2017-May-29 12:39N 51°08' W 128°06'212.1
2017-May-29 12:30N 51°09' W 128°08'714.3
2017-May-29 12:00N 51°13' W 128°17'714.3
2017-May-29 11:30N 51°18' W 128°26'714.4
2017-May-29 11:00N 51°22' W 128°35'714.3
2017-May-29 10:30N 51°27' W 128°44'714.3
2017-May-29 10:00N 51°32' W 128°52'714.6
2017-May-29 09:30N 51°38' W 128°58'714.5
2017-May-29 09:01N 51°44' W 129°04'714.6
2017-May-29 08:30N 51°51' W 129°10'814.5
2017-May-29 07:59N 51°57' W 129°16'714.7
2017-May-29 07:30N 52°03' W 129°23'432 9.3
2017-May-27 09:00N 58°30' W 135°00'28 0.6 150 / 91021.0
2017-May-25 12:23N 58°18' W 135°48'616.0
2017-May-25 12:00N 58°20' W 135°60'38914.9
2017-May-24 10:00N 57°48' W 148°12'440 9.0 200 / 281019.0
2017-May-22 09:00N 53°42' W 159°00'32414.1 220 / 151004.0
2017-May-21 10:00N 52°00' W 167°30'   190 / 71012.0

Dump ship's entire track history